Carlton, Louisiana
Current Conditions -  °F | °C
As of 10:15 AM on Thursday 29 Jan 2015 (Local Time) from KRSN Reporting Station
Clear Clear  
Wind Chill: 18°   Ceiling: Unl
Heat Index: 18°   Visibility: 10mi
Dew Point: 13°   Wind: 8mph
Humidity: 71%   Direction: 260°W
Pressure: 30.23"   Gusts: NA
Location:  32.5064°N, 92.3457°W
Report Text: KRSN 291615Z AUTO 26007KT 10SM CLR 18/13 A3023 RMK AO2 T01780125
Loading
Personal Weather Stations






























Interactive Weather Map New forecast layout! Learn more

10-Day Weather Forecast

Advertisements
Track Severe Weather on mobile